AirNav   ProFlight Series 2 Aviation Headset
 
 977 users online  

50F Bourland Field Airport
Fort Worth, Texas, USA

GOING TO FORT WORTH?


FAA INFORMATION EFFECTIVE 18 JUNE 2020

Location

FAA Identifier: 50F
Lat/Long: 32-34-54.6000N 097-35-26.8000W
32-34.910000N 097-35.446667W
32.5818333,-97.5907778
(estimated)
Elevation: 873.2 ft. / 266.2 m (surveyed)
Variation: 06E (2000)
From city: 17 miles SW of FORT WORTH, TX
Time zone: UTC -5 (UTC -6 during Standard Time)
Zip code: 76126

Airport Operations

Airport use: Open to the public
Activation date: 09/1981
Control tower: no
ARTCC: FORT WORTH CENTER
FSS: FORT WORTH FLIGHT SERVICE STATION
NOTAMs facility: FTW (NOTAM-D service available)
Attendance: MON-SAT DAYLIGHT HOURS
FOR SVCS AFT HRS CALL 817-396-4554.
Wind indicator: lighted
Segmented circle: yes
Lights: ACTVT MIRL RY 17/35, VASI RYS 17 & 35 - CTAF.
Beacon: white-green (lighted land airport)
Operates sunset to sunrise.

Airport Communications

CTAF/UNICOM: 123.0
REGIONAL APPROACH: 135.975
REGIONAL DEPARTURE: 135.975
DODJE STAR: 125.2 125.9
LIKES STAR: 125.8 ;SOUTH 135.975 ;NORTH
MOTZA STAR: 118.1 ;SOUTH 125.8 ;NORTH
REEKO STAR: 125.2
SANGR STAR: 124.3
SASIE STAR: 124.3
SLUGG STAR: 125.8 ;SOUTH 135.975 ;NORTH
WESAT STAR: 118.1 ;SOUTH 125.8 ;NORTH
WX AWOS-3 at GDJ (14 nm SW): 118.925 (817-573-7514)
WX AWOS-3 at FWS (14 nm E): 120.025 (817-426-4172)
WX AWOS-3 at CPT (16 nm SE): 119.525 (817-641-4135)
WX ASOS at FTW (18 nm NE): PHONE 817-740-3346

Nearby radio navigation aids

VOR radial/distance  VOR name  Freq  Var
MQPr104/22.3MILLSAP VORTAC117.7009E
FUZr222/27.8RANGER VORTAC115.7006E
JENr024/29.2GLEN ROSE VORTAC115.0006E
TTTr232/32.7MAVERICK VOR/DME113.1006E
CVEr236/39.3COWBOY VOR/DME116.2006E

Airport Services

Fuel available: 100LL JET-A
FUEL AVBL SELF SERVE AND FULL SERVICE
Parking: hangars and tiedowns

Runway Information

Runway 17/35

Dimensions: 4049 x 60 ft. / 1234 x 18 m
Surface: asphalt, in good condition
Runway edge lights: medium intensity
RY 17/35 NSTD MIRL; LENSES ON THLD & DSPLCD THLD CLEAR LENSES WITH SOLID COLOR BULBS.
RUNWAY 17  RUNWAY 35
Latitude: 32-35.240523N32-34.580380N
Longitude: 097-35.505517W097-35.388090W
Elevation: 873.1 ft.836.7 ft.
Traffic pattern: leftleft
Runway heading: 165 magnetic, 171 true345 magnetic, 351 true
Displaced threshold: 392 ft.215 ft.
Markings: nonprecision, in good conditionnonprecision, in good condition
Visual slope indicator: 2-box VASI on left (3.00 degrees glide path)2-box VASI on left (3.00 degrees glide path)
Touchdown point: yes, no lightsyes, no lights
Obstructions: 15 ft. road, 201 ft. from runway, 33 ft. right of centerline
15 FT RD 0 FT DSTC 112 FT R.
40 ft. trees, 201 ft. from runway, 60 ft. right of centerline
40 FT TREES 0-120 FT DSTC 60 FT R & L.

Airport Ownership and Management from official FAA records

Ownership: Privately-owned
Owner: MATT RIX
17611 HWY 377 SOUTH
CRESSON, TX 76035
Phone 817-307-0718
ALSO MATTHEW MOORE - 682-521-7056.
Manager: MARY JANE BUTT
101 CONSTELLATION DR
CRESSON, TX 76035
Phone 817-752-4701
817-832-5689 MGR CELL.

Airport Operational Statistics

Aircraft based on the field: 118
Single engine airplanes: 100
Multi engine airplanes: 15
Jet airplanes: 2
Helicopters: 1
    
Aircraft operations: avg 128/day *
75% local general aviation
25% transient general aviation
* for 12-month period ending 30 December 2018

Additional Remarks

FOR CD CTC REGIONAL APCH AT 972-615-2799.
BRUSH & TREES OBSCURE VIEW OF RWY & APPROACH AT TXY HOLD POSITIONS.
OPR STATUS OF RWY LIGHTS UNKN. NMRS LIGHTS KNOCKED OVER, BROKEN, BARE WIRES, EXPOSED WIRES.

Instrument Procedures

NOTE: All procedures below are presented as PDF files. If you need a reader for these files, you should download the free Adobe Reader.

NOT FOR NAVIGATION. Please procure official charts for flight.
FAA instrument procedures published for use from 18 June 2020 at 0901Z to 16 July 2020 at 0900Z.

 
STARs - Standard Terminal Arrivals
LIKES THREE (RNAV)   download (222KB)
MOTZA NINE **CHANGED**   2 pages: [1] [2] (536KB)
REEKO THREE (RNAV)   download (225KB)
SASIE SIX   2 pages: [1] [2] (527KB)
TRUUK TWO (RNAV)   download (223KB)
WESAT TWO (RNAV)   download (217KB)
 
IAPs - Instrument Approach Procedures
RNAV (GPS) RWY 17   download (179KB)
RNAV (GPS) RWY 35   download (194KB)
 
Departure Procedures
GARLAND EIGHT **NEW**   2 pages: [1] [2] (357KB)
KINGDOM SEVEN **NEW**   2 pages: [1] [2] (385KB)
KUSSO SIX (RNAV)   2 pages: [1] [2] (334KB)
SWABR SIX (RNAV)   2 pages: [1] [2] (332KB)
NOTE: Special Take-Off Minimums/Departure Procedures apply   download

Other nearby airports with instrument procedures:

KWEA - Parker County Airport (11 nm NW)
KNFW - Fort Worth Naval Air Station JRB (Carswell Field) Airport (14 nm NE)
KGDJ - Granbury Regional Airport (14 nm SW)
KFWS - Fort Worth Spinks Airport (14 nm E)
KCPT - Cleburne Regional Airport (16 nm SE)
KFTW - Fort Worth Meacham International Airport (18 nm NE)
 
Loc | Ops | Rwys | IFR | FBO | Links
Com | Nav | Svcs | Stats | Notes

City of Fort Worth
 
Area around 50F (Bourland Field Airport)
 
Road maps at: MapQuest Bing Google
 
Aerial photo
WARNING: Photo may not be current or correct
Aerial photo of 50F (Bourland Field Airport)
Photo by Paul Bristow
Photo taken 01-Jun-2008

Do you have a better or more recent aerial photo of Bourland Field Airport that you would like to share? If so, please send us your photo.

 
Sectional chart

 
Airport distance calculator
Flying to Bourland Field Airport? Find the distance to fly.

From to 50F

Sunrise and sunset
Times for 05-Jul-2020
 Local
(UTC-5)
 Zulu
(UTC)
Morning civil twilight06:0111:01
Sunrise06:3011:30
Sunset20:4001:40
Evening civil twilight21:0902:09

Current date and time
Zulu (UTC)  06-Jul-2020 00:00:22
Local (UTC-5)  05-Jul-2020 19:00:22
 
METAR
KNFW 
13nm NE 
052338Z AUTO 08007KT 10SM TS CLR 34/19 A2979 RMK AO2 TSB32B33 T03440194 VISNO N $
KGDJ 
14nm SW 
AWOS-3 118.925 817-573-7514
052355Z AUTO 04005KT 10SM CLR 34/21 A2981 RMK AO2 LTG DSNT NE T03370212 10337 20305
KFWS 
15nm E 
052351Z 09005KT 7SM CLR 34/21 A2981
KCPT 
16nm SE 
052355Z AUTO 06006KT 10SM CLR 33/21 A2981 RMK A01
KFTW 
19nm NE 
052353Z 07009KT 10SM TS FEW055 32/23 A2979 RMK AO2 LTG DSNT N TSB47 SLP076 T03170233 10339 20289 56016
KGKY 
25nm E 
052353Z 06011KT 10SM CLR 33/22 A2980 RMK AO2 LTG DSNT E AND NW SLP079 T03280222 10361 20317 56015
TAF
KNFW 
13nm NE 
0523/0623 VRB06KT 9999 FEW075 BKN110 BKN250 QNH2972INS TEMPO 0523/0600 VRB25G45KT VCTS BKN030CB AUTOMATED SENSOR METWATCH 0523 TIL 0611 T26/0612Z T33/0620Z FN00214
KFTW 
19nm NE 
052231Z 0523/0618 16058KT P6SM VCTS SCT060CB BKN250 FM060100 04006KT P6SM FEW060 BKN250 FM061500 05006KT P6SM VCTS BKN060CB
NOTAMs
Click for the latest NOTAMs
NOTAMs are issued by the DoD/FAA and will open in a separate window not controlled by AirNav.

 

 
 

FBO, Fuel Providers, and Aircraft Ground Support

  
 Business Name 
 
 Contact 
 
 Services / Description 
 
Fuel Prices
 
Comments
  
Bourland Field 817-396-4554
no information available

If you are affiliated with Bourland Field and would like to show here your services, contact info, web link, logo, and more, click here
100LL Jet A
FS --- $3.41 
SS $3.63 $3.41 
 Updated 24-Jun-2020
 
   write
FS=Full service
SS=Self service
Update Fuel Prices
 

Would you like to see your business listed on this page?

 If your business provides an interesting product or service to pilots, flight crews, aircraft, or users of the Bourland Field Airport, you should consider listing it here.  To start the listing process, click on the button below
 
Add a business
 

Other Pages about Bourland Field Airport

www.bourlandestates.com/bourlandfield.htm
 
Update a link
 
Copyright © AirNav, LLC. All rights reserved. Privacy Policy  Contact